sensor_id;sensor_type;location;lat;lon;timestamp;P1;durP1;ratioP1;P2;durP2;ratioP2
75550;SDS011;65071;53.082;18.218;2023-09-30T00:01:27;14.40;;;9.20;;
75550;SDS011;65071;53.082;18.218;2023-09-30T00:03:53;14.00;;;9.20;;
75550;SDS011;65071;53.082;18.218;2023-09-30T00:06:20;13.50;;;9.60;;
75550;SDS011;65071;53.082;18.218;2023-09-30T00:08:47;14.70;;;9.20;;
75550;SDS011;65071;53.082;18.218;2023-09-30T00:11:15;15.40;;;9.20;;
75550;SDS011;65071;53.082;18.218;2023-09-30T00:13:43;13.70;;;9.70;;
75550;SDS011;65071;53.082;18.218;2023-09-30T00:16:10;15.10;;;9.30;;
75550;SDS011;65071;53.082;18.218;2023-09-30T00:18:36;14.00;;;9.70;;
75550;SDS011;65071;53.082;18.218;2023-09-30T00:21:03;13.00;;;8.40;;
75550;SDS011;65071;53.082;18.218;2023-09-30T00:23:29;15.50;;;9.40;;
75550;SDS011;65071;53.082;18.218;2023-09-30T00:25:56;13.30;;;8.20;;
75550;SDS011;65071;53.082;18.218;2023-09-30T00:28:22;13.10;;;9.30;;
75550;SDS011;65071;53.082;18.218;2023-09-30T00:30:49;13.70;;;8.90;;
75550;SDS011;65071;53.082;18.218;2023-09-30T00:33:16;12.30;;;8.50;;
75550;SDS011;65071;53.082;18.218;2023-09-30T00:35:42;11.30;;;8.50;;
75550;SDS011;65071;53.082;18.218;2023-09-30T00:38:09;15.60;;;9.00;;
75550;SDS011;65071;53.082;18.218;2023-09-30T00:40:36;15.60;;;9.10;;
75550;SDS011;65071;53.082;18.218;2023-09-30T00:43:03;11.90;;;9.40;;
75550;SDS011;65071;53.082;18.218;2023-09-30T00:45:30;14.20;;;9.20;;
75550;SDS011;65071;53.082;18.218;2023-09-30T00:47:56;15.40;;;9.40;;
75550;SDS011;65071;53.082;18.218;2023-09-30T00:50:23;12.90;;;9.30;;
75550;SDS011;65071;53.082;18.218;2023-09-30T00:52:49;13.10;;;9.10;;
75550;SDS011;65071;53.082;18.218;2023-09-30T00:55:16;11.10;;;8.40;;
75550;SDS011;65071;53.082;18.218;2023-09-30T00:57:43;14.10;;;9.50;;
75550;SDS011;65071;53.082;18.218;2023-09-30T01:00:10;13.10;;;9.50;;
75550;SDS011;65071;53.082;18.218;2023-09-30T01:02:38;13.60;;;8.40;;
75550;SDS011;65071;53.082;18.218;2023-09-30T01:05:07;15.80;;;10.10;;
75550;SDS011;65071;53.082;18.218;2023-09-30T01:07:35;12.30;;;9.00;;
75550;SDS011;65071;53.082;18.218;2023-09-30T01:10:02;15.70;;;9.40;;
75550;SDS011;65071;53.082;18.218;2023-09-30T01:12:28;12.70;;;8.60;;
75550;SDS011;65071;53.082;18.218;2023-09-30T01:14:59;12.10;;;8.90;;
75550;SDS011;65071;53.082;18.218;2023-09-30T01:17:31;18.30;;;9.90;;
75550;SDS011;65071;53.082;18.218;2023-09-30T01:19:58;14.50;;;8.90;;
75550;SDS011;65071;53.082;18.218;2023-09-30T01:22:26;13.80;;;9.20;;
75550;SDS011;65071;53.082;18.218;2023-09-30T01:27:21;13.30;;;9.40;;
75550;SDS011;65071;53.082;18.218;2023-09-30T01:29:48;10.50;;;8.50;;
75550;SDS011;65071;53.082;18.218;2023-09-30T01:32:14;13.80;;;9.80;;
75550;SDS011;65071;53.082;18.218;2023-09-30T01:34:41;12.70;;;8.40;;
75550;SDS011;65071;53.082;18.218;2023-09-30T01:37:09;11.40;;;8.30;;
75550;SDS011;65071;53.082;18.218;2023-09-30T01:39:36;13.10;;;9.00;;
75550;SDS011;65071;53.082;18.218;2023-09-30T01:42:02;14.10;;;8.20;;
75550;SDS011;65071;53.082;18.218;2023-09-30T01:44:28;10.50;;;7.80;;
75550;SDS011;65071;53.082;18.218;2023-09-30T01:46:55;12.90;;;8.30;;
75550;SDS011;65071;53.082;18.218;2023-09-30T01:49:22;9.60;;;7.40;;
75550;SDS011;65071;53.082;18.218;2023-09-30T01:51:52;9.60;;;7.70;;
75550;SDS011;65071;53.082;18.218;2023-09-30T01:54:19;11.40;;;7.90;;
75550;SDS011;65071;53.082;18.218;2023-09-30T01:56:45;10.50;;;6.80;;
75550;SDS011;65071;53.082;18.218;2023-09-30T01:59:11;9.80;;;6.80;;
75550;SDS011;65071;53.082;18.218;2023-09-30T02:01:38;11.80;;;7.50;;
75550;SDS011;65071;53.082;18.218;2023-09-30T02:04:04;10.00;;;7.60;;
75550;SDS011;65071;53.082;18.218;2023-09-30T02:06:32;9.90;;;7.40;;
75550;SDS011;65071;53.082;18.218;2023-09-30T02:08:59;9.90;;;7.80;;
75550;SDS011;65071;53.082;18.218;2023-09-30T02:11:26;9.80;;;7.30;;
75550;SDS011;65071;53.082;18.218;2023-09-30T02:13:54;12.00;;;7.80;;
75550;SDS011;65071;53.082;18.218;2023-09-30T02:16:20;10.50;;;7.80;;
75550;SDS011;65071;53.082;18.218;2023-09-30T02:18:47;9.80;;;7.40;;
75550;SDS011;65071;53.082;18.218;2023-09-30T02:21:17;11.30;;;7.50;;
75550;SDS011;65071;53.082;18.218;2023-09-30T02:23:43;11.40;;;7.90;;
75550;SDS011;65071;53.082;18.218;2023-09-30T02:26:14;11.00;;;7.40;;
75550;SDS011;65071;53.082;18.218;2023-09-30T02:28:41;9.00;;;7.30;;
75550;SDS011;65071;53.082;18.218;2023-09-30T02:31:08;13.50;;;7.70;;
75550;SDS011;65071;53.082;18.218;2023-09-30T02:33:35;11.30;;;7.50;;
75550;SDS011;65071;53.082;18.218;2023-09-30T02:36:01;9.90;;;7.30;;
75550;SDS011;65071;53.082;18.218;2023-09-30T02:38:31;10.60;;;7.60;;
75550;SDS011;65071;53.082;18.218;2023-09-30T02:40:58;13.20;;;7.10;;
75550;SDS011;65071;53.082;18.218;2023-09-30T02:43:24;9.80;;;7.00;;
75550;SDS011;65071;53.082;18.218;2023-09-30T02:45:51;11.10;;;6.90;;
75550;SDS011;65071;53.082;18.218;2023-09-30T02:48:17;11.10;;;7.40;;
75550;SDS011;65071;53.082;18.218;2023-09-30T02:50:43;10.90;;;7.20;;
75550;SDS011;65071;53.082;18.218;2023-09-30T02:53:11;8.50;;;7.00;;
75550;SDS011;65071;53.082;18.218;2023-09-30T02:55:39;10.60;;;7.00;;
75550;SDS011;65071;53.082;18.218;2023-09-30T02:58:07;11.30;;;7.70;;
75550;SDS011;65071;53.082;18.218;2023-09-30T03:00:37;10.10;;;7.20;;
75550;SDS011;65071;53.082;18.218;2023-09-30T03:03:04;11.50;;;7.80;;
75550;SDS011;65071;53.082;18.218;2023-09-30T03:05:30;9.70;;;7.80;;
75550;SDS011;65071;53.082;18.218;2023-09-30T03:07:59;10.40;;;8.50;;
75550;SDS011;65071;53.082;18.218;2023-09-30T03:10:27;9.50;;;7.30;;
75550;SDS011;65071;53.082;18.218;2023-09-30T03:12:53;12.20;;;8.80;;
75550;SDS011;65071;53.082;18.218;2023-09-30T03:15:20;9.80;;;7.60;;
75550;SDS011;65071;53.082;18.218;2023-09-30T03:17:47;11.70;;;8.50;;
75550;SDS011;65071;53.082;18.218;2023-09-30T03:20:14;10.30;;;7.20;;
75550;SDS011;65071;53.082;18.218;2023-09-30T03:22:45;12.20;;;8.30;;
75550;SDS011;65071;53.082;18.218;2023-09-30T03:25:13;12.40;;;8.30;;
75550;SDS011;65071;53.082;18.218;2023-09-30T03:27:44;10.80;;;8.30;;
75550;SDS011;65071;53.082;18.218;2023-09-30T03:30:14;11.90;;;7.90;;
75550;SDS011;65071;53.082;18.218;2023-09-30T03:32:42;11.20;;;8.30;;
75550;SDS011;65071;53.082;18.218;2023-09-30T03:35:09;11.40;;;7.80;;
75550;SDS011;65071;53.082;18.218;2023-09-30T03:37:41;11.70;;;7.20;;
75550;SDS011;65071;53.082;18.218;2023-09-30T03:40:07;12.10;;;8.80;;
75550;SDS011;65071;53.082;18.218;2023-09-30T03:42:40;11.00;;;8.20;;
75550;SDS011;65071;53.082;18.218;2023-09-30T03:45:08;12.00;;;8.50;;
75550;SDS011;65071;53.082;18.218;2023-09-30T03:47:36;11.30;;;8.00;;
75550;SDS011;65071;53.082;18.218;2023-09-30T03:50:04;9.30;;;7.90;;
75550;SDS011;65071;53.082;18.218;2023-09-30T03:52:33;11.60;;;8.30;;
75550;SDS011;65071;53.082;18.218;2023-09-30T03:55:00;14.20;;;8.70;;
75550;SDS011;65071;53.082;18.218;2023-09-30T03:57:31;12.50;;;8.30;;
75550;SDS011;65071;53.082;18.218;2023-09-30T04:00:00;12.30;;;8.10;;
75550;SDS011;65071;53.082;18.218;2023-09-30T04:02:27;11.10;;;7.00;;
75550;SDS011;65071;53.082;18.218;2023-09-30T04:04:53;11.50;;;7.50;;
75550;SDS011;65071;53.082;18.218;2023-09-30T04:07:21;10.40;;;7.50;;
75550;SDS011;65071;53.082;18.218;2023-09-30T04:09:50;9.20;;;7.40;;
75550;SDS011;65071;53.082;18.218;2023-09-30T04:12:17;9.30;;;7.40;;
75550;SDS011;65071;53.082;18.218;2023-09-30T04:14:43;9.70;;;7.00;;
75550;SDS011;65071;53.082;18.218;2023-09-30T04:17:09;15.00;;;7.30;;
75550;SDS011;65071;53.082;18.218;2023-09-30T04:19:36;10.60;;;7.70;;
75550;SDS011;65071;53.082;18.218;2023-09-30T04:22:02;9.10;;;6.20;;
75550;SDS011;65071;53.082;18.218;2023-09-30T04:24:30;8.00;;;5.70;;
75550;SDS011;65071;53.082;18.218;2023-09-30T04:26:56;12.90;;;7.30;;
75550;SDS011;65071;53.082;18.218;2023-09-30T04:29:28;10.40;;;7.00;;
75550;SDS011;65071;53.082;18.218;2023-09-30T04:31:56;7.90;;;5.20;;
75550;SDS011;65071;53.082;18.218;2023-09-30T04:34:23;6.40;;;4.10;;
75550;SDS011;65071;53.082;18.218;2023-09-30T04:36:49;6.30;;;3.60;;
75550;SDS011;65071;53.082;18.218;2023-09-30T04:39:16;6.80;;;3.20;;
75550;SDS011;65071;53.082;18.218;2023-09-30T04:41:42;5.90;;;2.60;;
75550;SDS011;65071;53.082;18.218;2023-09-30T04:44:08;5.00;;;2.30;;
75550;SDS011;65071;53.082;18.218;2023-09-30T04:46:36;3.00;;;1.90;;
75550;SDS011;65071;53.082;18.218;2023-09-30T04:49:07;4.20;;;1.80;;
75550;SDS011;65071;53.082;18.218;2023-09-30T04:51:33;4.90;;;1.70;;
75550;SDS011;65071;53.082;18.218;2023-09-30T04:54:00;4.60;;;1.40;;
75550;SDS011;65071;53.082;18.218;2023-09-30T04:56:27;4.30;;;1.20;;
75550;SDS011;65071;53.082;18.218;2023-09-30T04:58:54;2.30;;;1.10;;
75550;SDS011;65071;53.082;18.218;2023-09-30T05:01:20;2.70;;;1.10;;
75550;SDS011;65071;53.082;18.218;2023-09-30T05:03:46;4.30;;;1.10;;
75550;SDS011;65071;53.082;18.218;2023-09-30T05:06:15;3.00;;;1.00;;
75550;SDS011;65071;53.082;18.218;2023-09-30T05:08:42;2.80;;;1.20;;
75550;SDS011;65071;53.082;18.218;2023-09-30T05:11:08;1.80;;;0.90;;
75550;SDS011;65071;53.082;18.218;2023-09-30T05:13:35;2.40;;;0.90;;
75550;SDS011;65071;53.082;18.218;2023-09-30T05:16:02;4.00;;;0.60;;
75550;SDS011;65071;53.082;18.218;2023-09-30T05:18:33;2.90;;;1.10;;
75550;SDS011;65071;53.082;18.218;2023-09-30T05:21:00;2.60;;;0.90;;
75550;SDS011;65071;53.082;18.218;2023-09-30T05:23:26;2.90;;;0.80;;
75550;SDS011;65071;53.082;18.218;2023-09-30T05:25:52;2.50;;;0.80;;
75550;SDS011;65071;53.082;18.218;2023-09-30T05:28:22;3.30;;;1.00;;
75550;SDS011;65071;53.082;18.218;2023-09-30T05:30:48;3.10;;;0.80;;
75550;SDS011;65071;53.082;18.218;2023-09-30T05:33:16;1.80;;;1.10;;
75550;SDS011;65071;53.082;18.218;2023-09-30T05:35:43;3.90;;;1.10;;
75550;SDS011;65071;53.082;18.218;2023-09-30T05:38:09;3.20;;;0.90;;
75550;SDS011;65071;53.082;18.218;2023-09-30T05:40:36;3.50;;;1.00;;
75550;SDS011;65071;53.082;18.218;2023-09-30T05:43:02;4.00;;;1.00;;
75550;SDS011;65071;53.082;18.218;2023-09-30T05:45:31;3.90;;;1.00;;
75550;SDS011;65071;53.082;18.218;2023-09-30T05:48:02;2.10;;;0.90;;
75550;SDS011;65071;53.082;18.218;2023-09-30T05:50:34;4.90;;;1.30;;
75550;SDS011;65071;53.082;18.218;2023-09-30T05:53:02;4.10;;;1.10;;
75550;SDS011;65071;53.082;18.218;2023-09-30T05:55:30;3.60;;;1.00;;
75550;SDS011;65071;53.082;18.218;2023-09-30T05:57:57;1.60;;;0.90;;
75550;SDS011;65071;53.082;18.218;2023-09-30T06:00:23;7.80;;;1.20;;
75550;SDS011;65071;53.082;18.218;2023-09-30T06:02:56;3.20;;;1.00;;
75550;SDS011;65071;53.082;18.218;2023-09-30T06:05:23;3.50;;;1.20;;
75550;SDS011;65071;53.082;18.218;2023-09-30T06:07:50;3.70;;;0.90;;
75550;SDS011;65071;53.082;18.218;2023-09-30T06:10:16;6.90;;;1.40;;
75550;SDS011;65071;53.082;18.218;2023-09-30T06:12:46;4.10;;;1.30;;
75550;SDS011;65071;53.082;18.218;2023-09-30T06:15:14;3.90;;;1.00;;
75550;SDS011;65071;53.082;18.218;2023-09-30T06:17:41;4.30;;;1.20;;
75550;SDS011;65071;53.082;18.218;2023-09-30T06:20:08;4.10;;;1.30;;
75550;SDS011;65071;53.082;18.218;2023-09-30T06:22:42;4.20;;;1.10;;
75550;SDS011;65071;53.082;18.218;2023-09-30T06:25:16;3.80;;;1.40;;
75550;SDS011;65071;53.082;18.218;2023-09-30T06:27:43;5.40;;;1.30;;
75550;SDS011;65071;53.082;18.218;2023-09-30T06:30:11;5.40;;;1.50;;
75550;SDS011;65071;53.082;18.218;2023-09-30T06:32:39;4.10;;;1.20;;
75550;SDS011;65071;53.082;18.218;2023-09-30T06:35:06;6.20;;;1.90;;
75550;SDS011;65071;53.082;18.218;2023-09-30T06:37:36;5.00;;;1.10;;
75550;SDS011;65071;53.082;18.218;2023-09-30T06:40:04;4.80;;;1.50;;
75550;SDS011;65071;53.082;18.218;2023-09-30T06:42:34;4.10;;;1.10;;
75550;SDS011;65071;53.082;18.218;2023-09-30T06:45:02;5.00;;;1.20;;
75550;SDS011;65071;53.082;18.218;2023-09-30T06:47:32;4.20;;;1.30;;
75550;SDS011;65071;53.082;18.218;2023-09-30T06:50:03;5.20;;;1.00;;
75550;SDS011;65071;53.082;18.218;2023-09-30T06:52:34;5.90;;;1.30;;
75550;SDS011;65071;53.082;18.218;2023-09-30T06:55:04;4.80;;;1.20;;
75550;SDS011;65071;53.082;18.218;2023-09-30T06:57:33;5.30;;;1.60;;
75550;SDS011;65071;53.082;18.218;2023-09-30T07:00:10;4.80;;;1.30;;
75550;SDS011;65071;53.082;18.218;2023-09-30T07:02:38;10.00;;;1.50;;
75550;SDS011;65071;53.082;18.218;2023-09-30T07:05:13;6.30;;;1.00;;
75550;SDS011;65071;53.082;18.218;2023-09-30T07:07:41;3.90;;;1.70;;
75550;SDS011;65071;53.082;18.218;2023-09-30T07:10:11;5.20;;;1.50;;
75550;SDS011;65071;53.082;18.218;2023-09-30T07:12:38;3.10;;;1.10;;
75550;SDS011;65071;53.082;18.218;2023-09-30T07:15:05;5.30;;;1.30;;
75550;SDS011;65071;53.082;18.218;2023-09-30T07:17:32;4.70;;;1.20;;
75550;SDS011;65071;53.082;18.218;2023-09-30T07:20:00;5.10;;;1.50;;
75550;SDS011;65071;53.082;18.218;2023-09-30T07:22:27;4.50;;;1.40;;
75550;SDS011;65071;53.082;18.218;2023-09-30T07:24:54;5.10;;;1.50;;
75550;SDS011;65071;53.082;18.218;2023-09-30T07:27:21;5.60;;;1.60;;
75550;SDS011;65071;53.082;18.218;2023-09-30T07:29:47;5.30;;;1.40;;
75550;SDS011;65071;53.082;18.218;2023-09-30T07:32:14;4.40;;;1.30;;
75550;SDS011;65071;53.082;18.218;2023-09-30T07:34:41;5.60;;;1.20;;
75550;SDS011;65071;53.082;18.218;2023-09-30T07:37:08;5.20;;;1.50;;
75550;SDS011;65071;53.082;18.218;2023-09-30T07:39:35;6.20;;;1.40;;
75550;SDS011;65071;53.082;18.218;2023-09-30T07:42:02;6.30;;;1.30;;
75550;SDS011;65071;53.082;18.218;2023-09-30T07:44:29;6.60;;;1.40;;
75550;SDS011;65071;53.082;18.218;2023-09-30T07:46:55;5.30;;;1.40;;
75550;SDS011;65071;53.082;18.218;2023-09-30T07:49:22;5.10;;;1.40;;
75550;SDS011;65071;53.082;18.218;2023-09-30T07:51:50;6.80;;;1.70;;
75550;SDS011;65071;53.082;18.218;2023-09-30T07:54:16;5.80;;;1.60;;
75550;SDS011;65071;53.082;18.218;2023-09-30T07:56:43;4.60;;;1.30;;
75550;SDS011;65071;53.082;18.218;2023-09-30T07:59:09;5.80;;;1.60;;
75550;SDS011;65071;53.082;18.218;2023-09-30T08:01:35;4.40;;;1.40;;
75550;SDS011;65071;53.082;18.218;2023-09-30T08:04:03;6.40;;;1.50;;
75550;SDS011;65071;53.082;18.218;2023-09-30T08:06:29;6.40;;;1.20;;
75550;SDS011;65071;53.082;18.218;2023-09-30T08:08:57;4.10;;;1.40;;
75550;SDS011;65071;53.082;18.218;2023-09-30T08:11:24;5.90;;;1.90;;
75550;SDS011;65071;53.082;18.218;2023-09-30T08:13:54;6.00;;;1.80;;
75550;SDS011;65071;53.082;18.218;2023-09-30T08:16:20;6.20;;;1.60;;
75550;SDS011;65071;53.082;18.218;2023-09-30T08:18:47;5.60;;;1.30;;
75550;SDS011;65071;53.082;18.218;2023-09-30T08:21:13;5.60;;;1.60;;
75550;SDS011;65071;53.082;18.218;2023-09-30T08:23:40;4.90;;;1.60;;
75550;SDS011;65071;53.082;18.218;2023-09-30T08:26:06;5.00;;;1.60;;
75550;SDS011;65071;53.082;18.218;2023-09-30T08:28:32;4.10;;;1.70;;
75550;SDS011;65071;53.082;18.218;2023-09-30T08:31:02;3.40;;;1.10;;
75550;SDS011;65071;53.082;18.218;2023-09-30T08:33:29;7.60;;;1.90;;
75550;SDS011;65071;53.082;18.218;2023-09-30T08:36:03;7.50;;;2.10;;
75550;SDS011;65071;53.082;18.218;2023-09-30T08:38:37;3.90;;;1.30;;
75550;SDS011;65071;53.082;18.218;2023-09-30T08:41:05;5.60;;;1.90;;
75550;SDS011;65071;53.082;18.218;2023-09-30T08:43:39;7.50;;;1.70;;
75550;SDS011;65071;53.082;18.218;2023-09-30T08:46:06;5.70;;;1.70;;
75550;SDS011;65071;53.082;18.218;2023-09-30T08:48:33;5.50;;;1.70;;
75550;SDS011;65071;53.082;18.218;2023-09-30T08:51:01;5.10;;;1.50;;
75550;SDS011;65071;53.082;18.218;2023-09-30T08:53:28;5.50;;;1.30;;
75550;SDS011;65071;53.082;18.218;2023-09-30T08:55:56;5.20;;;1.90;;
75550;SDS011;65071;53.082;18.218;2023-09-30T08:58:27;4.90;;;1.50;;
75550;SDS011;65071;53.082;18.218;2023-09-30T09:00:55;6.60;;;1.40;;
75550;SDS011;65071;53.082;18.218;2023-09-30T09:03:27;9.60;;;2.10;;
75550;SDS011;65071;53.082;18.218;2023-09-30T09:08:25;5.30;;;1.70;;
75550;SDS011;65071;53.082;18.218;2023-09-30T09:10:56;5.40;;;2.30;;
75550;SDS011;65071;53.082;18.218;2023-09-30T09:13:24;5.80;;;1.60;;
75550;SDS011;65071;53.082;18.218;2023-09-30T09:16:24;6.20;;;1.90;;
75550;SDS011;65071;53.082;18.218;2023-09-30T09:18:45;5.80;;;1.40;;
75550;SDS011;65071;53.082;18.218;2023-09-30T09:21:15;4.20;;;1.50;;
75550;SDS011;65071;53.082;18.218;2023-09-30T09:26:32;6.10;;;1.60;;
75550;SDS011;65071;53.082;18.218;2023-09-30T09:29:01;6.80;;;1.80;;
75550;SDS011;65071;53.082;18.218;2023-09-30T09:31:30;5.40;;;1.60;;
75550;SDS011;65071;53.082;18.218;2023-09-30T09:33:57;6.20;;;1.70;;
75550;SDS011;65071;53.082;18.218;2023-09-30T09:36:37;4.40;;;1.40;;
75550;SDS011;65071;53.082;18.218;2023-09-30T09:39:09;6.00;;;1.60;;
75550;SDS011;65071;53.082;18.218;2023-09-30T09:44:23;4.90;;;1.80;;
75550;SDS011;65071;53.082;18.218;2023-09-30T09:46:53;5.50;;;1.30;;
75550;SDS011;65071;53.082;18.218;2023-09-30T09:49:20;8.60;;;1.50;;
75550;SDS011;65071;53.082;18.218;2023-09-30T09:51:48;6.80;;;1.80;;
75550;SDS011;65071;53.082;18.218;2023-09-30T09:54:15;6.10;;;1.40;;
75550;SDS011;65071;53.082;18.218;2023-09-30T09:56:45;7.20;;;1.70;;
75550;SDS011;65071;53.082;18.218;2023-09-30T09:59:12;6.30;;;1.90;;
75550;SDS011;65071;53.082;18.218;2023-09-30T10:01:40;6.80;;;1.90;;
75550;SDS011;65071;53.082;18.218;2023-09-30T10:04:10;4.90;;;1.70;;
75550;SDS011;65071;53.082;18.218;2023-09-30T10:06:37;7.80;;;2.00;;
75550;SDS011;65071;53.082;18.218;2023-09-30T10:09:07;5.90;;;1.80;;
75550;SDS011;65071;53.082;18.218;2023-09-30T10:11:38;4.90;;;1.50;;
75550;SDS011;65071;53.082;18.218;2023-09-30T10:22:20;4.60;;;1.50;;
75550;SDS011;65071;53.082;18.218;2023-09-30T10:24:52;6.20;;;1.70;;
75550;SDS011;65071;53.082;18.218;2023-09-30T10:35:19;4.70;;;2.00;;
75550;SDS011;65071;53.082;18.218;2023-09-30T10:37:48;6.20;;;1.50;;
75550;SDS011;65071;53.082;18.218;2023-09-30T10:42:54;5.30;;;1.50;;
75550;SDS011;65071;53.082;18.218;2023-09-30T10:50:50;5.60;;;1.90;;
75550;SDS011;65071;53.082;18.218;2023-09-30T10:53:22;5.30;;;1.60;;
75550;SDS011;65071;53.082;18.218;2023-09-30T10:55:56;3.60;;;1.60;;
75550;SDS011;65071;53.082;18.218;2023-09-30T11:01:14;6.20;;;1.90;;
75550;SDS011;65071;53.082;18.218;2023-09-30T11:03:43;7.00;;;1.60;;
75550;SDS011;65071;53.082;18.218;2023-09-30T11:06:13;6.60;;;1.50;;
75550;SDS011;65071;53.082;18.218;2023-09-30T11:08:45;8.50;;;1.60;;
75550;SDS011;65071;53.082;18.218;2023-09-30T11:14:19;7.40;;;2.00;;
75550;SDS011;65071;53.082;18.218;2023-09-30T11:16:46;7.70;;;1.60;;
75550;SDS011;65071;53.082;18.218;2023-09-30T11:19:14;5.10;;;1.70;;
75550;SDS011;65071;53.082;18.218;2023-09-30T11:21:41;5.30;;;1.60;;
75550;SDS011;65071;53.082;18.218;2023-09-30T11:26:37;5.20;;;1.70;;
75550;SDS011;65071;53.082;18.218;2023-09-30T11:29:08;5.50;;;1.40;;
75550;SDS011;65071;53.082;18.218;2023-09-30T11:31:45;5.60;;;1.60;;
75550;SDS011;65071;53.082;18.218;2023-09-30T11:34:13;7.30;;;1.90;;
75550;SDS011;65071;53.082;18.218;2023-09-30T11:36:50;6.30;;;1.50;;
75550;SDS011;65071;53.082;18.218;2023-09-30T11:39:22;4.30;;;1.50;;
75550;SDS011;65071;53.082;18.218;2023-09-30T11:41:50;5.40;;;1.40;;
75550;SDS011;65071;53.082;18.218;2023-09-30T11:44:16;5.50;;;1.70;;
75550;SDS011;65071;53.082;18.218;2023-09-30T11:46:50;5.30;;;1.50;;
75550;SDS011;65071;53.082;18.218;2023-09-30T11:52:02;4.20;;;1.20;;
75550;SDS011;65071;53.082;18.218;2023-09-30T11:57:16;7.30;;;1.60;;
75550;SDS011;65071;53.082;18.218;2023-09-30T11:59:45;3.80;;;1.00;;
75550;SDS011;65071;53.082;18.218;2023-09-30T12:02:12;4.30;;;1.00;;
75550;SDS011;65071;53.082;18.218;2023-09-30T12:04:42;3.80;;;1.00;;
75550;SDS011;65071;53.082;18.218;2023-09-30T12:07:09;5.80;;;1.80;;
75550;SDS011;65071;53.082;18.218;2023-09-30T12:09:36;3.70;;;1.20;;
75550;SDS011;65071;53.082;18.218;2023-09-30T12:12:03;3.70;;;0.90;;
75550;SDS011;65071;53.082;18.218;2023-09-30T12:14:30;6.10;;;1.30;;
75550;SDS011;65071;53.082;18.218;2023-09-30T12:16:57;4.50;;;1.30;;
75550;SDS011;65071;53.082;18.218;2023-09-30T12:19:24;6.00;;;1.50;;
75550;SDS011;65071;53.082;18.218;2023-09-30T12:21:52;3.40;;;1.30;;
75550;SDS011;65071;53.082;18.218;2023-09-30T12:24:19;5.40;;;1.20;;
75550;SDS011;65071;53.082;18.218;2023-09-30T12:29:15;3.70;;;1.00;;
75550;SDS011;65071;53.082;18.218;2023-09-30T12:31:43;4.20;;;1.40;;
75550;SDS011;65071;53.082;18.218;2023-09-30T12:34:13;4.90;;;1.30;;
75550;SDS011;65071;53.082;18.218;2023-09-30T12:36:40;6.20;;;1.30;;
75550;SDS011;65071;53.082;18.218;2023-09-30T12:39:11;2.90;;;1.20;;
75550;SDS011;65071;53.082;18.218;2023-09-30T12:41:40;5.40;;;1.20;;
75550;SDS011;65071;53.082;18.218;2023-09-30T12:44:08;4.60;;;1.30;;
75550;SDS011;65071;53.082;18.218;2023-09-30T12:46:36;4.90;;;1.20;;
75550;SDS011;65071;53.082;18.218;2023-09-30T12:49:08;7.00;;;1.00;;
75550;SDS011;65071;53.082;18.218;2023-09-30T12:51:35;6.10;;;1.40;;
75550;SDS011;65071;53.082;18.218;2023-09-30T12:54:05;7.20;;;1.50;;
75550;SDS011;65071;53.082;18.218;2023-09-30T12:56:32;7.00;;;1.50;;
75550;SDS011;65071;53.082;18.218;2023-09-30T12:58:59;5.90;;;1.40;;
75550;SDS011;65071;53.082;18.218;2023-09-30T13:01:25;4.90;;;1.20;;
75550;SDS011;65071;53.082;18.218;2023-09-30T13:03:52;4.50;;;1.30;;
75550;SDS011;65071;53.082;18.218;2023-09-30T13:06:18;5.90;;;1.40;;
75550;SDS011;65071;53.082;18.218;2023-09-30T13:08:45;6.00;;;1.40;;
75550;SDS011;65071;53.082;18.218;2023-09-30T13:11:12;4.00;;;1.10;;
75550;SDS011;65071;53.082;18.218;2023-09-30T13:13:40;2.70;;;0.90;;
75550;SDS011;65071;53.082;18.218;2023-09-30T13:16:09;7.00;;;1.80;;
75550;SDS011;65071;53.082;18.218;2023-09-30T13:18:37;8.00;;;1.40;;
75550;SDS011;65071;53.082;18.218;2023-09-30T13:21:03;3.40;;;1.40;;
75550;SDS011;65071;53.082;18.218;2023-09-30T13:23:32;3.20;;;1.00;;
75550;SDS011;65071;53.082;18.218;2023-09-30T13:25:59;5.70;;;1.20;;
75550;SDS011;65071;53.082;18.218;2023-09-30T13:28:26;6.70;;;1.20;;
75550;SDS011;65071;53.082;18.218;2023-09-30T13:30:54;4.90;;;1.10;;
75550;SDS011;65071;53.082;18.218;2023-09-30T13:33:20;3.70;;;1.20;;
75550;SDS011;65071;53.082;18.218;2023-09-30T13:35:47;4.00;;;1.20;;
75550;SDS011;65071;53.082;18.218;2023-09-30T13:38:13;4.10;;;1.20;;
75550;SDS011;65071;53.082;18.218;2023-09-30T13:40:42;4.60;;;1.20;;
75550;SDS011;65071;53.082;18.218;2023-09-30T13:43:08;6.50;;;1.00;;
75550;SDS011;65071;53.082;18.218;2023-09-30T13:45:34;3.90;;;0.90;;
75550;SDS011;65071;53.082;18.218;2023-09-30T13:48:00;4.10;;;1.20;;
75550;SDS011;65071;53.082;18.218;2023-09-30T13:50:27;2.20;;;0.90;;
75550;SDS011;65071;53.082;18.218;2023-09-30T13:52:53;3.40;;;1.10;;
75550;SDS011;65071;53.082;18.218;2023-09-30T13:55:20;5.70;;;1.50;;
75550;SDS011;65071;53.082;18.218;2023-09-30T13:57:46;5.30;;;1.60;;
75550;SDS011;65071;53.082;18.218;2023-09-30T14:00:14;4.20;;;1.20;;
75550;SDS011;65071;53.082;18.218;2023-09-30T14:02:43;4.80;;;1.30;;
75550;SDS011;65071;53.082;18.218;2023-09-30T14:05:09;3.90;;;1.20;;
75550;SDS011;65071;53.082;18.218;2023-09-30T14:07:38;5.30;;;1.20;;
75550;SDS011;65071;53.082;18.218;2023-09-30T14:10:07;3.50;;;1.10;;
75550;SDS011;65071;53.082;18.218;2023-09-30T14:12:36;6.90;;;1.80;;
75550;SDS011;65071;53.082;18.218;2023-09-30T14:15:04;2.50;;;1.10;;
75550;SDS011;65071;53.082;18.218;2023-09-30T14:17:31;4.90;;;1.40;;
75550;SDS011;65071;53.082;18.218;2023-09-30T14:19:58;3.80;;;1.30;;
75550;SDS011;65071;53.082;18.218;2023-09-30T14:22:24;5.00;;;1.40;;
75550;SDS011;65071;53.082;18.218;2023-09-30T14:24:51;3.30;;;1.10;;
75550;SDS011;65071;53.082;18.218;2023-09-30T14:27:18;5.20;;;1.40;;
75550;SDS011;65071;53.082;18.218;2023-09-30T14:29:46;3.40;;;1.10;;
75550;SDS011;65071;53.082;18.218;2023-09-30T14:32:12;4.80;;;1.20;;
75550;SDS011;65071;53.082;18.218;2023-09-30T14:34:38;5.00;;;1.30;;
75550;SDS011;65071;53.082;18.218;2023-09-30T14:37:05;4.80;;;1.30;;
75550;SDS011;65071;53.082;18.218;2023-09-30T14:39:31;3.90;;;1.40;;
75550;SDS011;65071;53.082;18.218;2023-09-30T14:41:58;5.00;;;1.50;;
75550;SDS011;65071;53.082;18.218;2023-09-30T14:44:24;4.20;;;1.80;;
75550;SDS011;65071;53.082;18.218;2023-09-30T14:46:52;5.00;;;1.40;;
75550;SDS011;65071;53.082;18.218;2023-09-30T14:49:19;3.80;;;1.00;;
75550;SDS011;65071;53.082;18.218;2023-09-30T14:51:46;5.40;;;1.10;;
75550;SDS011;65071;53.082;18.218;2023-09-30T14:54:14;3.80;;;1.10;;
75550;SDS011;65071;53.082;18.218;2023-09-30T14:56:40;4.10;;;1.40;;
75550;SDS011;65071;53.082;18.218;2023-09-30T14:59:07;6.40;;;1.20;;
75550;SDS011;65071;53.082;18.218;2023-09-30T15:01:33;4.80;;;1.30;;
75550;SDS011;65071;53.082;18.218;2023-09-30T15:03:59;6.40;;;1.70;;
75550;SDS011;65071;53.082;18.218;2023-09-30T15:06:26;3.20;;;1.00;;
75550;SDS011;65071;53.082;18.218;2023-09-30T15:08:54;5.50;;;1.50;;
75550;SDS011;65071;53.082;18.218;2023-09-30T15:11:20;3.70;;;1.40;;
75550;SDS011;65071;53.082;18.218;2023-09-30T15:13:47;3.90;;;1.10;;
75550;SDS011;65071;53.082;18.218;2023-09-30T15:16:14;6.80;;;1.60;;
75550;SDS011;65071;53.082;18.218;2023-09-30T15:18:45;3.80;;;1.20;;
75550;SDS011;65071;53.082;18.218;2023-09-30T15:21:13;3.50;;;1.00;;
75550;SDS011;65071;53.082;18.218;2023-09-30T15:23:40;3.40;;;0.90;;
75550;SDS011;65071;53.082;18.218;2023-09-30T15:26:07;4.20;;;1.20;;